Mayport Ns (Adm David L. Mcdonald Field) Airport
KNRB : now visible

Airfield :











YOU CAN JOIN US ON...

 
LOGIN :

Register | Disclaimer

   EN    FR    IT 

 









Legend :    VFR   Marginal VFR   IFR   Intensive IFR   Very Intensive IFR
Visi :
Ceiling :
>= 8 km
>= 3000ft
5 to 8 km
1000 to 3000 ft
1500m to 5 km
500 to 1000 ft
800 to 1500m
200 to 500 ft
< 800m
< 200 ft
Symbols :   Thunderstorms  Fog  Heavy snow  Heavy precipitations  Wind > 20 kt






- Airport Elevation : 15 ft


KNRB - Mayport Ns (Adm David L. Mcdonald Field)

CURRENT METAR :
  • 141052Z 22004KT 10SM FEW150 BKN250 17/16 A3012 RMK AO2 SLP198 T01670161

EXPIRED METARs :
  • 140952Z 27005KT 10SM FEW150 BKN250 18/17 A3010 RMK AO2 SLP192 T01830172
  • 140907Z 24004KT 10SM FEW150 BKN250 18/17 A3009 RMK AO2 T01780172
  • 140852Z AUTO 22004KT 9SM CLR 17/16 A3009 RMK AO2 SLP187 T01670161 56007

TAF TAF KNRB
Valid from the 14 at 07:00 until the 15 at 07:00 UTC


1407/1507 21008KT 9999 BKN250 QNH3002INS
FM141500 17009KT 9999 SCT040 BKN250 QNH3000INS
FM142000 16012G22KT 9999 SCT040 BKN150 BKN250 QNH2995INS
BECMG 1503/1505 23008KT 9999 SCT090 BKN280 QNH2990INS AUTOMATED SENSOR METWATCH 1407 TIL 1409 T17/1411Z T28/1419Z FN00216
KZJX FIR / North America



MET'MAP, your aeronautical weather chart ! - Copyright ORBIFLY December 2007 - Disclaimer

ORBIFLY MET'MAP TEAM :

Programming & Development : Alexandra Zaïnal
Concept & original design : Baudouin d'Aumeries
Assistance for programming : Marc-Olivier Méhu
Technical & hardware support : Manuel Goepfert

Contact : metmap@orbifly.com




SOURCES & CREDITS :

   NOAA       Earth
Advisory